Pyxis Theta — 9HA3126 — position and weather

sailwx.info

Track history (hours):
 
Tides and Currents Weather Stations Pressure Air Temp Water Temp Dewpoint Dewpoint Depression Visibility Wind Speed Wind Dir Waves Ship Positions

Pyxis Theta

Last reported at 2017-Nov-23 10:46 UTC. Time now 2017-Dec-12 04:34 UTC.
Position N 29°43' W 093°20'.
Warning: this ship's position is 18 days out of date.

Length 183 m; draft 10.3 m.

Type: Tanker. MMSI: 229580000.

Date/timePositionNaut miles runAvg speedWind from/ knotsBaromVisibWave heightAir tempDewpointWater temp
2017-Nov-23 10:46N 29°43' W 093°20'4 9.9
2017-Nov-23 10:23N 29°47' W 093°21'3 8.7
2017-Nov-23 10:01N 29°50' W 093°21'4 8.3
2017-Nov-23 09:30N 29°55' W 093°20'4 8.5
2017-Nov-23 09:01N 29°59' W 093°20'4 7.1
2017-Nov-23 08:31N 30°02' W 093°20'4 7.8
2017-Nov-23 08:01N 30°06' W 093°20'3 6.3
2017-Nov-23 07:30N 30°09' W 093°20'2 3.7
2017-Nov-23 07:00N 30°11' W 093°18'0 0.2
2017-Nov-23 06:28N 30°11' W 093°19'0 0.0
2017-Nov-23 05:58N 30°11' W 093°19'0 0.0
2017-Nov-23 05:28N 30°11' W 093°19'0 0.0
2017-Nov-23 04:58N 30°11' W 093°19'0 0.0
2017-Nov-23 04:28N 30°11' W 093°19'0 0.0
2017-Nov-23 03:55N 30°11' W 093°19'0 0.1
2017-Nov-23 03:28N 30°11' W 093°19'0 0.1
2017-Nov-23 03:00N 30°11' W 093°18'1 1.3
2017-Nov-23 02:28N 30°10' W 093°19'0 0.0
2017-Nov-23 01:58N 30°10' W 093°19'0 0.0
2017-Nov-23 01:28N 30°10' W 093°19'0 0.0
2017-Nov-23 00:58N 30°10' W 093°19'0 0.0
2017-Nov-23 00:28N 30°10' W 093°19'0 0.0
2017-Nov-22 23:58N 30°10' W 093°19'0 0.0
2017-Nov-22 23:28N 30°10' W 093°19'0 0.0
2017-Nov-22 22:58N 30°10' W 093°19'0 0.0
2017-Nov-22 22:28N 30°10' W 093°19'0 0.0
2017-Nov-22 21:58N 30°10' W 093°19'0 0.0
2017-Nov-22 21:28N 30°10' W 093°19'0 0.0
2017-Nov-22 20:58N 30°10' W 093°19'0 0.0
2017-Nov-22 20:25N 30°10' W 093°19'0 0.0
2017-Nov-22 19:58N 30°10' W 093°19'0 0.0
2017-Nov-22 19:28N 30°10' W 093°19'  
Track history (hours):
 
Tides and Currents Weather Stations Pressure Air Temp Water Temp Dewpoint Dewpoint Depression Visibility Wind Speed Wind Dir Waves Ship Positions

Pyxis Theta

Last reported at 2017-Nov-23 10:46 UTC. Time now 2017-Dec-12 04:34 UTC.
Position N 29°43' W 093°20'.
Warning: this ship's position is 18 days out of date.

Length 183 m; draft 10.3 m.

Type: Tanker. MMSI: 229580000.

Date/timePositionNaut miles runAvg speedWind from/ knotsBaromVisibWave heightAir tempDewpointWater temp
2017-Nov-23 10:46N 29°43' W 093°20'4 9.9
2017-Nov-23 10:23N 29°47' W 093°21'3 8.7
2017-Nov-23 10:01N 29°50' W 093°21'4 8.3
2017-Nov-23 09:30N 29°55' W 093°20'4 8.5
2017-Nov-23 09:01N 29°59' W 093°20'4 7.1
2017-Nov-23 08:31N 30°02' W 093°20'4 7.8
2017-Nov-23 08:01N 30°06' W 093°20'3 6.3
2017-Nov-23 07:30N 30°09' W 093°20'2 3.7
2017-Nov-23 07:00N 30°11' W 093°18'0 0.2
2017-Nov-23 06:28N 30°11' W 093°19'0 0.0
2017-Nov-23 05:58N 30°11' W 093°19'0 0.0
2017-Nov-23 05:28N 30°11' W 093°19'0 0.0
2017-Nov-23 04:58N 30°11' W 093°19'0 0.0
2017-Nov-23 04:28N 30°11' W 093°19'0 0.0
2017-Nov-23 03:55N 30°11' W 093°19'0 0.1
2017-Nov-23 03:28N 30°11' W 093°19'0 0.1
2017-Nov-23 03:00N 30°11' W 093°18'1 1.3
2017-Nov-23 02:28N 30°10' W 093°19'0 0.0
2017-Nov-23 01:58N 30°10' W 093°19'0 0.0
2017-Nov-23 01:28N 30°10' W 093°19'0 0.0
2017-Nov-23 00:58N 30°10' W 093°19'0 0.0
2017-Nov-23 00:28N 30°10' W 093°19'0 0.0
2017-Nov-22 23:58N 30°10' W 093°19'0 0.0
2017-Nov-22 23:28N 30°10' W 093°19'0 0.0
2017-Nov-22 22:58N 30°10' W 093°19'0 0.0
2017-Nov-22 22:28N 30°10' W 093°19'0 0.0
2017-Nov-22 21:58N 30°10' W 093°19'0 0.0
2017-Nov-22 21:28N 30°10' W 093°19'0 0.0
2017-Nov-22 20:58N 30°10' W 093°19'0 0.0
2017-Nov-22 20:25N 30°10' W 093°19'0 0.0
2017-Nov-22 19:58N 30°10' W 093°19'0 0.0
2017-Nov-22 19:28N 30°10' W 093°19'  

Dump ship's entire track history